Time;durP1;ratioP1;P1;durP2;ratioP2;P2;SDS_P1;SDS_P2;PMS_P1;PMS_P2;Temp;Humidity;BMP_temperature;BMP_pressure;BME280_temperature;BME280_humidity;BME280_pressure;Samples;Min_cycle;Max_cycle;Signal;HPM_P1;HPM_P2
2023/09/02 00:01:00;;;;;;;4.95;3.60;;;17.30;81.50;;;16.23;100.00;96193.53;4947127;28;20574;-72
2023/09/02 00:03:26;;;;;;;4.10;3.20;;;17.20;81.70;;;16.20;100.00;96196.66;4951838;28;20046;-70
2023/09/02 00:05:52;;;;;;;6.38;3.58;;;17.20;81.40;;;16.18;100.00;96194.22;4978783;28;20031;-71
2023/09/02 00:08:18;;;;;;;4.50;3.22;;;17.20;81.60;;;16.16;100.00;96196.28;4942351;28;20039;-71
2023/09/02 00:10:44;;;;;;;6.30;3.67;;;17.10;81.80;;;16.16;100.00;96187.50;4939996;28;20758;-72
2023/09/02 00:13:10;;;;;;;4.90;3.55;;;17.10;81.80;;;16.15;100.00;96196.50;4945019;28;20038;-72
2023/09/02 00:15:36;;;;;;;4.40;3.33;;;17.10;81.80;;;16.15;100.00;96196.50;4903502;28;20047;-71
2023/09/02 00:18:01;;;;;;;5.40;3.55;;;17.10;81.80;;;16.13;100.00;96185.31;4911305;28;20149;-72
2023/09/02 00:20:27;;;;;;;4.72;3.42;;;17.10;81.70;;;16.14;100.00;96192.22;4935340;28;20451;-71
2023/09/02 00:22:53;;;;;;;4.68;3.40;;;17.10;81.70;;;16.13;100.00;96198.56;4945500;28;20031;-72
2023/09/02 00:25:19;;;;;;;7.25;3.72;;;17.10;81.60;;;16.12;100.00;96207.56;4935975;28;20129;-71
2023/09/02 00:27:44;;;;;;;5.10;3.55;;;17.10;81.50;;;16.09;100.00;96198.22;4933244;28;20494;-70
2023/09/02 00:30:11;;;;;;;5.78;3.95;;;17.10;81.50;;;16.06;100.00;96193.31;4928814;28;20410;-71
2023/09/02 00:32:36;;;;;;;6.72;3.67;;;17.00;81.60;;;16.03;100.00;96195.59;4930718;28;20030;-72
2023/09/02 00:35:02;;;;;;;5.72;4.00;;;17.00;81.70;;;16.00;100.00;96194.19;4944763;28;20489;-72
2023/09/02 00:37:28;;;;;;;6.47;3.80;;;17.00;81.70;;;15.99;100.00;96194.44;4950056;28;20035;-72
2023/09/02 04:33:32;;;;;;;6.47;5.30;;;14.50;89.60;;;14.43;100.00;96261.31;6076836;22;1407907;-69
2023/09/02 04:36:00;;;;;;;7.07;4.82;;;15.20;87.10;;;14.44;100.00;96267.41;6105608;23;20020;-69
2023/09/02 04:38:26;;;;;;;5.72;4.75;;;15.30;86.60;;;14.44;100.00;96270.06;6090213;23;20005;-70
2023/09/02 04:40:53;;;;;;;7.85;4.65;;;15.40;86.20;;;14.43;100.00;96271.06;6093255;23;20012;-68
2023/09/02 04:43:19;;;;;;;5.25;4.75;;;15.50;85.90;;;14.42;100.00;96264.94;6112083;23;20304;-67
2023/09/02 04:45:45;;;;;;;7.13;4.40;;;15.50;85.50;;;14.45;100.00;96267.19;6093638;23;20075;-68
2023/09/02 04:48:11;;;;;;;5.57;4.15;;;15.60;85.30;;;14.45;100.00;96272.50;6092965;23;20026;-67
2023/09/02 04:50:37;;;;;;;5.80;4.55;;;15.60;85.10;;;14.41;100.00;96264.13;6117530;23;19997;-67
2023/09/02 04:53:03;;;;;;;5.60;4.15;;;15.60;85.00;;;14.46;100.00;96271.47;6094100;23;20006;-67
2023/09/02 04:55:29;;;;;;;4.95;4.25;;;15.70;84.90;;;14.48;100.00;96268.63;6118630;23;20009;-67
2023/09/02 04:57:56;;;;;;;5.60;4.05;;;15.70;84.80;;;14.49;100.00;96268.44;6102737;23;20490;-68
2023/09/02 05:00:28;;;;;;;6.35;4.07;;;15.70;84.80;;;14.50;100.00;96269.25;6119300;23;20005;-67
2023/09/02 05:02:54;;;;;;;5.30;4.00;;;15.70;84.50;;;14.48;100.00;96268.63;6104364;23;20047;-67
2023/09/02 05:05:22;;;;;;;5.43;4.30;;;15.70;84.40;;;14.51;100.00;96263.75;6072309;23;20006;-67
2023/09/02 05:07:48;;;;;;;4.40;3.80;;;15.80;84.40;;;14.51;100.00;96266.38;6107293;23;20005;-67
2023/09/02 05:10:14;;;;;;;6.32;3.95;;;15.90;84.40;;;14.57;100.00;96277.97;6144379;23;20008;-67
2023/09/02 05:12:41;;;;;;;8.35;3.95;;;15.90;84.20;;;14.58;100.00;96274.28;6116774;23;20250;-67
2023/09/02 05:15:07;;;;;;;5.97;3.83;;;15.90;84.20;;;14.61;100.00;96279.97;6143936;23;20478;-68
2023/09/02 05:17:33;;;;;;;5.45;3.80;;;15.90;84.30;;;14.64;100.00;96278.75;6117688;23;20013;-68
2023/09/02 05:20:00;;;;;;;4.57;3.63;;;16.00;84.40;;;14.66;100.00;96282.00;6118174;23;20045;-67
2023/09/02 05:22:25;;;;;;;8.57;4.47;;;16.00;84.40;;;14.69;100.00;96292.97;6118170;23;20017;-67
2023/09/02 05:24:51;;;;;;;5.13;3.55;;;16.00;84.30;;;14.72;100.00;96291.78;6118254;23;20518;-67
2023/09/02 05:27:17;;;;;;;5.50;3.85;;;16.10;84.30;;;14.74;100.00;96289.72;6140466;23;20017;-68
2023/09/02 05:29:43;;;;;;;4.47;3.47;;;16.10;84.10;;;14.77;100.00;96294.59;6118817;23;20454;-67
2023/09/02 05:32:09;;;;;;;5.38;3.80;;;16.10;84.10;;;14.81;100.00;96290.50;6109669;23;20022;-68
2023/09/02 05:34:35;;;;;;;5.57;3.50;;;16.20;83.90;;;14.87;100.00;96291.47;6055266;23;20006;-68
2023/09/02 05:37:02;;;;;;;7.25;3.55;;;16.20;83.60;;;14.91;100.00;96295.31;6061678;23;20002;-67
2023/09/02 05:39:28;;;;;;;4.13;3.03;;;16.30;83.70;;;14.94;100.00;96289.63;6085198;23;20757;-66
2023/09/02 05:41:53;;;;;;;4.95;3.25;;;16.30;83.30;;;14.97;100.00;96289.22;6082291;23;20057;-67
2023/09/02 05:44:19;;;;;;;4.72;2.90;;;16.30;83.30;;;15.02;100.00;96294.69;6084998;23;20037;-66
2023/09/02 05:46:45;;;;;;;5.55;3.08;;;16.50;83.00;;;15.09;100.00;96298.09;6085336;23;20030;-67
2023/09/02 05:49:12;;;;;;;4.85;3.13;;;16.60;82.80;;;15.17;100.00;96302.34;6109321;23;20029;-70
2023/09/02 05:51:38;;;;;;;4.82;2.88;;;16.70;82.60;;;15.23;100.00;96289.06;6085082;23;20431;-67
2023/09/02 05:54:04;;;;;;;4.85;3.35;;;16.80;82.50;;;15.32;100.00;96303.66;6084616;23;20017;-66
2023/09/02 05:56:31;;;;;;;4.32;3.13;;;16.90;82.40;;;15.41;100.00;96300.78;6109168;23;20025;-67
2023/09/02 05:58:58;;;;;;;6.53;3.65;;;17.00;81.90;;;15.48;100.00;96290.94;6085662;23;20076;-67
2023/09/02 06:01:23;;;;;;;8.48;4.15;;;17.10;81.70;;;15.57;100.00;96300.25;6084833;23;20002;-67
2023/09/02 06:03:49;;;;;;;8.65;4.15;;;17.20;81.70;;;15.67;100.00;96299.81;6084411;23;20006;-67
2023/09/02 06:06:15;;;;;;;6.90;3.60;;;17.40;81.60;;;15.77;100.00;96302.78;6085356;23;20057;-67
2023/09/02 06:08:41;;;;;;;4.43;3.20;;;17.50;81.30;;;15.86;100.00;96309.44;6084598;23;20006;-67
2023/09/02 06:11:06;;;;;;;6.68;3.00;;;17.60;81.10;;;15.96;100.00;96301.00;6109825;23;20010;-67
2023/09/02 06:13:32;;;;;;;2.70;2.25;;;17.70;80.80;;;16.05;100.00;96299.66;6084273;23;20018;-67
2023/09/02 06:15:59;;;;;;;3.90;2.50;;;17.80;80.60;;;16.13;100.00;96305.53;6084646;23;20014;-67
2023/09/02 06:18:25;;;;;;;4.68;2.80;;;18.00;80.60;;;16.22;100.00;96301.56;6060153;23;20395;-67
2023/09/02 06:20:51;;;;;;;4.03;2.35;;;18.00;80.60;;;16.31;100.00;96295.97;6084278;23;20350;-67
2023/09/02 06:23:17;;;;;;;4.07;2.55;;;18.10;80.30;;;16.39;100.00;96304.47;6085117;23;20364;-67
2023/09/02 06:25:42;;;;;;;5.32;3.58;;;18.10;79.30;;;16.46;100.00;96315.81;6108239;23;20451;-68
2023/09/02 06:28:08;;;;;;;6.97;6.13;;;18.20;78.90;;;16.54;100.00;96314.72;6082521;23;20042;-68
2023/09/02 06:30:37;;;;;;;4.25;3.00;;;18.20;78.80;;;16.61;100.00;96307.50;6057074;23;20038;-69
2023/09/02 06:33:03;;;;;;;5.13;3.40;;;18.30;78.20;;;16.67;100.00;96311.94;6081651;23;20014;-68
2023/09/02 06:35:32;;;;;;;4.10;3.20;;;18.30;78.10;;;16.73;100.00;96310.22;6083096;23;20018;-66
2023/09/02 06:37:58;;;;;;;4.55;2.67;;;18.40;78.30;;;16.80;100.00;96316.31;6032015;23;20014;-67
2023/09/02 06:40:24;;;;;;;4.30;2.92;;;18.50;78.10;;;16.85;100.00;96319.09;6080322;23;20094;-69
2023/09/02 06:42:50;;;;;;;6.00;2.50;;;18.50;77.50;;;16.91;100.00;96317.38;6050677;23;20038;-68
2023/09/02 06:45:15;;;;;;;6.03;2.50;;;18.60;77.30;;;16.94;100.00;96320.41;6055495;23;20097;-67
2023/09/02 06:47:41;;;;;;;4.05;2.88;;;18.60;77.50;;;16.99;100.00;96315.25;6080027;23;20006;-67
2023/09/02 06:50:07;;;;;;;6.30;2.67;;;18.70;77.60;;;17.08;100.00;96319.22;6056349;23;20352;-67
2023/09/02 06:52:33;;;;;;;3.42;2.50;;;18.70;77.30;;;17.17;100.00;96316.22;6055403;23;20472;-66
2023/09/02 06:54:59;;;;;;;3.13;2.38;;;18.90;77.30;;;17.24;100.00;96319.63;6078148;23;20062;-64
2023/09/02 06:57:25;;;;;;;5.40;2.83;;;19.00;76.80;;;17.33;100.00;96327.06;6056125;23;20011;-66
2023/09/02 06:59:50;;;;;;;4.05;2.70;;;19.10;76.40;;;17.42;100.00;96330.19;6031082;23;20084;-67
2023/09/02 07:02:16;;;;;;;3.45;2.63;;;19.20;76.40;;;17.52;100.00;96325.16;6055631;23;20045;-67
2023/09/02 07:04:42;;;;;;;5.93;2.58;;;19.40;76.90;;;17.66;100.00;96331.09;6078971;23;20018;-68
2023/09/02 07:07:08;;;;;;;4.45;2.60;;;19.60;76.20;;;17.81;100.00;96330.69;6079883;23;20244;-66
2023/09/02 07:09:33;;;;;;;5.57;2.65;;;19.70;75.30;;;17.96;100.00;96325.75;6055509;23;20011;-67
2023/09/02 07:11:59;;;;;;;3.60;2.00;;;19.90;75.20;;;18.13;100.00;96328.56;6054772;23;20029;-66
2023/09/02 07:14:25;;;;;;;4.35;2.75;;;20.10;74.50;;;18.30;100.00;96324.94;6055244;23;20074;-67
2023/09/02 07:16:51;;;;;;;2.80;2.10;;;20.50;74.10;;;18.51;100.00;96328.88;6055393;23;20015;-66
2023/09/02 07:19:17;;;;;;;3.85;2.65;;;20.70;73.00;;;18.74;100.00;96328.06;6055883;23;20015;-67
2023/09/02 07:21:43;;;;;;;4.03;2.45;;;21.10;72.20;;;19.01;100.00;96327.53;6079194;23;20098;-66
2023/09/02 07:24:09;;;;;;;9.95;4.10;;;21.60;70.70;;;19.32;100.00;96324.44;6054192;23;20325;-69
2023/09/02 07:26:37;;;;;;;3.60;2.50;;;22.00;68.60;;;19.66;100.00;96320.00;6062054;23;20017;-67
2023/09/02 07:29:03;;;;;;;5.57;2.22;;;22.30;67.60;;;20.08;100.00;96322.28;6080449;23;20013;-65
2023/09/02 07:31:29;;;;;;;3.38;2.03;;;22.90;66.40;;;20.55;100.00;96321.94;6095923;23;20030;-66
2023/09/02 07:33:54;;;;;;;3.05;2.00;;;23.30;62.70;;;21.00;100.00;96319.06;6081897;23;20084;-69
2023/09/02 07:36:20;;;;;;;7.75;6.57;;;23.70;62.60;;;21.49;100.00;96322.56;6108535;23;20347;-64
2023/09/02 07:38:46;;;;;;;5.90;4.30;;;24.10;62.10;;;21.98;100.00;96320.63;6085008;23;20356;-65
2023/09/02 07:41:12;;;;;;;4.65;2.20;;;24.50;61.30;;;22.47;98.56;96317.81;6108454;23;20343;-65
2023/09/02 07:43:38;;;;;;;4.68;1.90;;;25.00;59.90;;;22.95;95.83;96318.63;6082021;23;20017;-65
2023/09/02 07:46:03;;;;;;;10.40;7.82;;;25.40;58.60;;;23.40;92.35;96320.66;6110546;23;20006;-65
2023/09/02 07:48:29;;;;;;;16.05;13.10;;;25.80;57.30;;;23.81;89.97;96321.56;6083963;23;20006;-66
2023/09/02 07:50:55;;;;;;;5.10;2.50;;;26.10;56.90;;;24.22;85.83;96321.59;6082506;23;20281;-65
2023/09/02 07:53:20;;;;;;;5.63;3.30;;;26.40;54.40;;;24.59;82.20;96321.28;6083361;23;20006;-66
2023/09/02 07:55:46;;;;;;;4.20;2.35;;;26.70;53.60;;;24.95;80.83;96313.94;6082774;23;20002;-66
2023/09/02 07:58:12;;;;;;;3.17;1.85;;;27.00;53.70;;;25.29;78.85;96321.34;6082991;23;20010;-66
2023/09/02 08:00:41;;;;;;;2.75;1.85;;;27.40;52.90;;;25.49;76.44;96318.53;6084209;23;20002;-66
2023/09/02 08:03:06;;;;;;;3.00;1.80;;;27.40;52.10;;;25.71;75.67;96320.84;6106711;23;20006;-66
2023/09/02 08:05:36;;;;;;;3.80;2.17;;;27.80;52.30;;;25.95;72.08;96310.19;6083793;23;20610;-66
2023/09/02 08:08:02;;;;;;;3.03;1.98;;;28.00;51.50;;;26.14;74.68;96324.59;6083193;23;20422;-66
2023/09/02 08:10:31;;;;;;;9.13;7.40;;;28.30;50.90;;;26.35;73.33;96325.25;6082967;23;20085;-66
2023/09/02 08:12:56;;;;;;;3.92;2.15;;;28.50;50.60;;;26.55;73.40;96319.66;6107539;23;20013;-66
2023/09/02 08:15:24;;;;;;;6.20;4.53;;;28.70;51.30;;;26.77;70.81;96316.47;6107964;23;20356;-66
2023/09/02 08:17:49;;;;;;;12.15;9.43;;;29.10;48.80;;;26.97;70.20;96309.25;6108403;23;20022;-66
2023/09/02 08:20:15;;;;;;;7.13;2.92;;;29.40;47.80;;;27.17;68.89;96322.53;6081853;23;20795;-66
2023/09/02 08:22:43;;;;;;;4.78;2.17;;;29.60;47.30;;;27.34;68.41;96313.91;6083171;23;20030;-66
2023/09/02 08:25:09;;;;;;;2.33;1.70;;;29.70;47.40;;;27.50;66.27;96322.63;6106863;23;20068;-66
2023/09/02 08:27:37;;;;;;;3.40;1.95;;;29.90;46.20;;;27.66;65.95;96307.84;6084188;23;20014;-66
2023/09/02 08:30:04;;;;;;;2.58;1.75;;;30.10;46.20;;;27.84;65.67;96320.56;6084082;23;20085;-67
2023/09/02 08:32:30;;;;;;;2.38;1.80;;;30.30;47.00;;;28.01;64.79;96315.41;6081593;23;20026;-68
2023/09/02 08:34:56;;;;;;;2.90;1.90;;;30.60;46.30;;;28.18;64.26;96322.19;6058883;23;20002;-69
2023/09/02 08:37:22;;;;;;;3.15;1.80;;;30.70;45.70;;;28.33;63.22;96319.25;6054518;23;20065;-67
2023/09/02 08:39:48;;;;;;;3.75;1.80;;;30.90;44.80;;;28.47;62.46;96311.16;6055409;23;20400;-67
2023/09/02 08:42:19;;;;;;;14.05;10.10;;;31.00;45.30;;;28.61;58.20;96288.44;6052228;23;20452;-69
2023/09/02 08:44:47;;;;;;;7.43;6.03;;;31.10;44.00;;;28.76;59.79;96306.28;6054298;23;20360;-68
2023/09/02 08:47:13;;;;;;;2.85;1.90;;;31.40;43.00;;;28.93;59.02;96300.28;6078891;23;20645;-67
2023/09/02 08:49:39;;;;;;;3.47;1.45;;;31.50;42.50;;;28.86;58.04;96299.91;6055903;23;20436;-68
2023/09/02 08:52:05;;;;;;;2.05;1.00;;;31.10;42.20;;;28.95;57.19;96304.31;6053832;23;20069;-67
2023/09/02 08:54:31;;;;;;;3.92;1.42;;;31.30;42.50;;;29.11;56.89;96295.88;6078999;23;20010;-68
2023/09/02 08:56:57;;;;;;;3.70;1.55;;;31.60;42.60;;;29.28;58.30;96317.75;6059105;23;20081;-67
2023/09/02 08:59:25;;;;;;;2.30;1.38;;;31.80;44.70;;;29.42;57.25;96315.00;6083076;23;20002;-67
2023/09/02 09:01:51;;;;;;;4.63;1.67;;;31.70;43.60;;;29.54;58.28;96320.72;6108008;23;20430;-67
2023/09/02 09:04:16;;;;;;;3.42;1.73;;;32.10;44.00;;;29.70;57.17;96315.78;6107798;23;20030;-68
2023/09/02 09:06:43;;;;;;;2.13;1.35;;;32.10;43.20;;;29.84;56.60;96309.19;6108314;23;20042;-65
2023/09/02 09:09:09;;;;;;;3.47;1.40;;;32.40;42.10;;;30.00;55.56;96303.41;6085081;23;20332;-66
2023/09/02 09:11:39;;;;;;;3.35;1.58;;;32.50;41.30;;;30.16;53.50;96296.53;6085590;23;20025;-66
2023/09/02 09:14:06;;;;;;;4.05;1.50;;;32.70;40.50;;;30.29;54.00;96301.06;6085987;23;20045;-66
2023/09/02 09:16:35;;;;;;;3.13;1.40;;;32.70;41.20;;;30.46;53.05;96292.25;6110009;23;20016;-66
2023/09/02 09:19:01;;;;;;;1.88;1.20;;;33.10;40.90;;;30.63;54.02;96297.00;6085770;23;20014;-66
2023/09/02 09:21:27;;;;;;;3.17;1.50;;;33.30;40.20;;;30.83;53.59;96301.06;6109602;23;20356;-65
2023/09/02 09:23:53;;;;;;;2.65;1.30;;;33.50;40.60;;;31.03;51.75;96290.44;6084390;23;20535;-67
2023/09/02 09:26:19;;;;;;;1.75;1.20;;;33.60;39.20;;;31.24;51.99;96289.91;6085507;23;20410;-67
2023/09/02 09:29:03;;;;;;;2.95;1.48;;;33.90;38.40;;;31.41;48.56;96279.03;6084608;23;20014;-67
2023/09/02 09:31:29;;;;;;;2.47;1.10;;;34.00;39.50;;;31.58;49.71;96292.66;6107906;23;20030;-66
2023/09/02 09:33:58;;;;;;;3.95;1.70;;;34.20;37.90;;;31.80;48.91;96280.03;6108131;23;20002;-67
2023/09/02 09:36:24;;;;;;;3.72;1.55;;;34.40;37.20;;;31.97;48.05;96277.31;6111603;23;20065;-69
2023/09/02 09:38:55;;;;;;;1.60;1.10;;;34.70;36.40;;;32.22;43.42;96241.09;6109808;23;20022;-69
2023/09/02 09:41:25;;;;;;;2.90;1.48;;;35.00;36.00;;;32.41;46.38;96269.91;6107179;23;20466;-68
2023/09/02 09:44:07;;;;;;;3.03;1.25;;;35.10;35.60;;;32.50;42.95;96238.78;6085165;23;20013;-67
2023/09/02 09:46:42;;;;;;;1.73;1.20;;;35.00;35.40;;;32.69;42.46;96240.31;6108545;23;20450;-66
2023/09/02 09:49:08;;;;;;;4.10;1.50;;;35.30;35.00;;;32.82;44.72;96261.13;6109410;23;20021;-67
2023/09/02 09:51:34;;;;;;;2.30;1.40;;;35.50;35.00;;;32.96;44.42;96260.88;6084681;23;20064;-67
2023/09/02 09:53:59;;;;;;;2.08;1.40;;;35.70;35.10;;;33.13;43.96;96255.34;6108766;23;20478;-67
2023/09/02 09:56:25;;;;;;;2.80;1.70;;;35.90;35.10;;;33.33;43.08;96246.44;6084750;23;20014;-67
2023/09/02 09:58:51;;;;;;;2.90;1.30;;;36.10;34.10;;;33.43;43.02;96254.19;6110330;23;20018;-68
2023/09/02 10:01:24;;;;;;;2.17;1.38;;;36.30;34.40;;;33.56;40.74;96233.25;6060586;23;20014;-67
2023/09/02 10:03:51;;;;;;;2.03;1.38;;;36.60;33.50;;;33.73;42.39;96248.69;6084187;23;20480;-70
2023/09/02 10:06:18;;;;;;;1.75;1.20;;;36.80;32.80;;;33.90;41.75;96251.28;6108772;23;20061;-69
2023/09/02 10:08:54;;;;;;;2.00;1.17;;;36.90;32.90;;;34.08;38.38;96214.50;6084935;23;20013;-69
2023/09/02 10:11:23;;;;;;;3.60;1.20;;;37.10;31.20;;;34.36;40.00;96233.00;6083868;23;20018;-67
2023/09/02 10:13:51;;;;;;;2.45;1.15;;;37.50;32.50;;;34.54;40.00;96225.41;6060189;23;20033;-68
2023/09/02 10:16:16;;;;;;;2.40;1.27;;;37.50;31.40;;;34.80;38.83;96227.81;6109744;23;20089;-69
2023/09/02 10:18:42;;;;;;;2.20;1.27;;;38.00;30.50;;;35.02;39.06;96230.13;6109509;23;20017;-69
2023/09/02 10:21:10;;;;;;;3.20;1.00;;;38.10;31.00;;;35.25;38.85;96228.50;6084580;23;20006;-68
2023/09/02 10:23:35;;;;;;;2.00;0.98;;;38.60;30.30;;;35.40;37.52;96213.34;6084056;23;20074;-68
2023/09/02 10:26:06;;;;;;;1.90;0.98;;;38.80;27.60;;;35.46;34.71;96183.78;6084768;23;20020;-68
2023/09/02 10:28:38;;;;;;;3.22;0.98;;;38.70;28.10;;;35.46;33.99;96172.84;6084607;23;20014;-68
2023/09/02 10:31:12;;;;;;;1.80;1.10;;;38.80;27.90;;;35.47;34.82;96191.66;6083583;23;20136;-68
2023/09/02 10:33:56;;;;;;;1.65;1.13;;;39.20;28.30;;;35.59;34.65;96183.41;6084991;23;20005;-68
2023/09/02 10:36:23;;;;;;;2.13;1.05;;;39.40;28.00;;;35.65;37.01;96207.78;6083910;23;20235;-68
2023/09/02 10:38:49;;;;;;;1.40;1.00;;;39.70;29.10;;;35.76;36.33;96208.88;6109629;23;20391;-70
2023/09/02 10:41:16;;;;;;;1.75;0.98;;;40.20;28.00;;;35.88;36.29;96206.13;6108139;23;20017;-70
2023/09/02 10:43:44;;;;;;;4.10;1.38;;;40.50;27.70;;;36.01;35.81;96206.88;6085180;23;20005;-70
2023/09/02 10:46:10;;;;;;;1.65;1.10;;;40.70;27.40;;;36.16;35.40;96200.59;6108869;23;20137;-71
2023/09/02 10:48:42;;;;;;;2.55;1.13;;;41.00;26.60;;;36.32;33.57;96176.81;6084934;23;20013;-72
2023/09/02 10:51:08;;;;;;;1.75;0.88;;;41.10;25.60;;;36.50;34.23;96186.25;6061417;23;19995;-72
2023/09/02 10:53:51;;;;;;;1.48;1.05;;;41.50;25.40;;;36.58;31.59;96170.78;6084966;23;20053;-68
2023/09/02 10:56:31;;;;;;;2.38;1.55;;;41.20;25.40;;;36.74;32.60;96174.31;6109337;23;20012;-68
2023/09/02 10:59:01;;;;;;;3.10;1.33;;;41.10;26.20;;;36.92;34.03;96188.47;6083811;23;20014;-66
2023/09/02 11:01:45;;;;;;;1.92;1.30;;;41.70;26.10;;;37.09;33.24;96190.78;6107088;23;20002;-68
2023/09/02 11:04:11;;;;;;;2.60;1.05;;;42.20;26.80;;;37.27;35.26;96209.63;6084784;23;20029;-71
2023/09/02 11:06:37;;;;;;;3.15;1.35;;;42.60;26.60;;;37.39;34.92;96213.03;6099819;23;20032;-73
2023/09/02 11:09:02;;;;;;;2.47;1.17;;;42.70;25.40;;;37.51;34.51;96203.88;6086894;23;19995;-69
2023/09/02 11:12:08;;;;;;;2.75;1.40;;;42.70;25.30;;;37.76;31.40;96181.66;6108207;23;20021;-71
2023/09/02 11:14:34;;;;;;;3.00;1.10;;;43.00;25.10;;;37.92;33.21;96196.09;6084220;23;20032;-71
2023/09/02 11:17:28;;;;;;;2.83;1.20;;;43.00;24.30;;;38.11;30.82;96162.31;6058830;23;20462;-70
2023/09/02 11:19:59;;;;;;;1.63;0.98;;;43.20;24.10;;;38.14;32.73;96186.28;6058707;23;20006;-68
2023/09/02 11:22:56;;;;;;;2.83;1.13;;;43.30;24.60;;;37.99;30.45;96155.00;6060124;23;20013;-67
2023/09/02 11:25:37;;;;;;;1.80;1.10;;;41.50;25.00;;;37.70;31.11;96165.44;6108781;23;20118;-67
2023/09/02 11:28:05;;;;;;;1.67;0.93;;;41.80;25.20;;;37.75;31.64;96175.34;6060198;23;20010;-67
2023/09/02 11:30:34;;;;;;;2.25;1.10;;;42.70;24.50;;;37.86;31.16;96170.88;6087825;23;20052;-67
2023/09/02 11:33:00;;;;;;;2.70;1.00;;;43.20;24.10;;;38.09;30.26;96159.91;6087370;23;20022;-68
2023/09/02 11:35:34;;;;;;;2.95;1.15;;;43.30;21.80;;;38.24;28.34;96136.25;6089068;23;20060;-68
2023/09/02 11:38:01;;;;;;;2.08;1.00;;;43.40;22.30;;;38.42;29.94;96166.78;6055987;23;20470;-67
2023/09/02 11:40:27;;;;;;;2.25;1.00;;;44.00;22.20;;;38.59;29.80;96174.53;6086350;23;20234;-67
2023/09/02 11:43:00;;;;;;;1.25;0.90;;;44.40;22.70;;;38.82;30.08;96172.56;6110353;23;20017;-68
2023/09/02 11:45:34;;;;;;;1.80;1.10;;;44.90;22.70;;;39.17;29.22;96160.53;6090564;23;20001;-68
2023/09/02 11:48:00;;;;;;;3.15;1.10;;;45.20;22.70;;;39.39;29.54;96173.41;6061536;23;20736;-67
2023/09/02 11:50:25;;;;;;;2.22;1.10;;;45.30;21.80;;;39.49;28.79;96167.22;6088461;23;20014;-68
2023/09/02 11:52:56;;;;;;;1.88;0.98;;;44.90;21.30;;;39.48;27.55;96153.84;6088311;23;20028;-68
2023/09/02 11:55:22;;;;;;;3.30;0.95;;;45.00;21.60;;;39.55;28.54;96166.91;6088135;23;20012;-68
2023/09/02 11:57:48;;;;;;;2.17;1.10;;;45.00;21.70;;;39.63;28.08;96154.84;6087846;23;20006;-68
2023/09/02 12:00:16;;;;;;;2.90;1.10;;;45.00;21.10;;;39.55;28.15;96150.38;6088934;23;20033;-68
2023/09/02 12:02:42;;;;;;;2.72;1.00;;;44.70;21.60;;;39.60;28.75;96158.31;6112769;23;20005;-70
2023/09/02 12:05:08;;;;;;;2.25;0.90;;;45.00;22.30;;;39.71;28.18;96151.78;6112766;23;20477;-69
2023/09/02 12:07:38;;;;;;;1.20;1.00;;;44.50;22.00;;;39.76;27.18;96136.88;6113542;23;20002;-69
2023/09/02 12:10:10;;;;;;;1.23;0.90;;;44.90;21.40;;;39.83;26.96;96136.94;6113247;23;20025;-70
2023/09/02 12:12:44;;;;;;;1.40;0.90;;;45.20;21.40;;;39.91;26.59;96127.59;6113447;23;20018;-70
2023/09/02 12:15:12;;;;;;;2.00;1.00;;;45.20;21.00;;;39.95;27.59;96131.19;6089573;23;20423;-70
2023/09/02 12:17:38;;;;;;;1.85;1.17;;;45.10;21.40;;;39.90;27.72;96128.75;6113037;23;20521;-69
2023/09/02 12:20:05;;;;;;;3.72;1.30;;;44.60;21.40;;;39.83;26.95;96119.59;6065823;23;20009;-70
2023/09/02 12:22:31;;;;;;;2.88;0.90;;;44.80;20.40;;;39.83;26.52;96114.91;6111880;23;20040;-69
2023/09/02 12:24:56;;;;;;;1.88;0.80;;;44.80;20.20;;;39.88;27.12;96128.34;6089177;23;20447;-71
2023/09/02 12:27:22;;;;;;;1.60;1.00;;;45.10;21.20;;;39.89;27.61;96123.63;6111870;23;20013;-70
2023/09/02 12:29:56;;;;;;;1.80;1.25;;;45.50;21.80;;;40.05;27.61;96124.97;6138094;23;20005;-70
2023/09/02 12:32:22;;;;;;;1.00;0.80;;;45.80;22.10;;;40.20;28.75;96149.91;6111518;23;20025;-70
2023/09/02 12:34:49;;;;;;;1.27;0.80;;;46.30;22.40;;;40.39;29.23;96147.78;6064797;23;21553;-71
2023/09/02 12:37:20;;;;;;;2.25;1.20;;;46.60;22.40;;;40.66;28.59;96140.09;6112379;23;20934;-70
2023/09/02 12:39:46;;;;;;;1.33;1.05;;;47.00;22.20;;;40.91;28.73;96145.00;6089097;23;20009;-70
2023/09/02 12:42:25;;;;;;;3.15;1.20;;;47.10;21.90;;;41.13;27.05;96119.09;6084951;23;20533;-71
2023/09/02 12:44:52;;;;;;;1.67;1.15;;;46.90;20.90;;;41.33;28.13;96143.69;6090974;23;20018;-70
2023/09/02 12:47:23;;;;;;;0.90;0.80;;;47.00;20.70;;;41.66;26.51;96118.59;6065706;23;20439;-68
2023/09/02 12:49:48;;;;;;;2.03;1.10;;;47.10;20.90;;;41.78;27.63;96134.00;6115145;23;20013;-70
2023/09/02 12:52:19;;;;;;;7.82;6.22;;;47.00;20.90;;;41.94;26.79;96123.41;6090434;23;20013;-70
2023/09/02 12:54:58;;;;;;;5.85;3.20;;;47.10;21.40;;;42.09;26.15;96115.91;6114018;23;20355;-69
2023/09/02 12:57:25;;;;;;;;;;;47.20;21.10;;;42.20;25.53;96108.44;6090491;23;20014;-70
2023/09/02 12:59:51;;;;;;;3.60;1.37;;;47.10;20.40;;;42.21;27.54;96134.91;6090449;23;20258;-70
2023/09/02 13:02:17;;;;;;;2.30;1.30;;;47.00;20.40;;;42.30;26.19;96127.00;6090752;23;20096;-70
2023/09/02 13:04:43;;;;;;;1.42;1.17;;;47.00;19.50;;;42.22;26.16;96111.59;6090776;23;20447;-70
2023/09/02 13:07:08;;;;;;;3.17;2.55;;;46.60;19.70;;;42.18;26.16;96114.38;6065963;23;20009;-70
2023/09/02 13:09:34;;;;;;;2.60;1.90;;;46.70;20.90;;;42.21;25.97;96118.31;6090491;23;19998;-71
2023/09/02 13:12:01;;;;;;;1.38;1.00;;;46.70;21.20;;;42.10;25.42;96109.22;6114110;23;20500;-71
2023/09/02 13:14:27;;;;;;;1.35;1.00;;;46.50;19.90;;;41.90;25.23;96106.03;6091109;23;20016;-71
2023/09/02 13:16:52;;;;;;;1.55;0.85;;;46.00;20.20;;;41.74;25.12;96108.34;6091028;23;20013;-70
2023/09/02 13:19:22;;;;;;;1.83;1.10;;;45.90;20.10;;;41.88;24.53;96102.88;6141002;23;20084;-71
2023/09/02 13:21:48;;;;;;;1.17;0.90;;;46.00;20.80;;;41.94;24.89;96108.78;6050108;23;20532;-70
2023/09/02 13:24:19;;;;;;;3.28;1.02;;;45.90;20.80;;;42.07;25.32;96118.28;6113240;23;20014;-69
2023/09/02 13:26:45;;;;;;;1.30;1.00;;;46.10;21.60;;;42.16;25.57;96129.75;6089738;23;20092;-69
2023/09/02 13:29:12;;;;;;;2.40;1.00;;;46.30;21.50;;;42.20;25.80;96125.03;6114101;23;20010;-69
2023/09/02 13:31:38;;;;;;;1.33;0.82;;;45.80;21.50;;;42.24;25.95;96123.03;6066767;23;20037;-69
2023/09/02 13:34:05;;;;;;;2.70;1.20;;;45.70;22.60;;;42.00;26.21;96126.56;6115688;23;20347;-70
2023/09/02 13:36:31;;;;;;;1.08;0.90;;;45.10;22.50;;;41.71;26.57;96125.72;6115665;23;20454;-69
2023/09/02 13:38:56;;;;;;;1.55;1.10;;;43.90;23.60;;;40.97;26.88;96126.94;6068044;23;20092;-69
2023/09/02 13:41:22;;;;;;;1.98;1.10;;;42.20;24.90;;;40.04;27.26;96126.16;6088612;23;20025;-69
2023/09/02 13:43:48;;;;;;;1.50;1.10;;;40.70;26.20;;;39.14;27.49;96115.25;6089972;23;20002;-70
2023/09/02 13:46:14;;;;;;;1.45;0.95;;;39.40;27.20;;;38.74;28.31;96137.88;6113567;23;20540;-69
2023/09/02 13:48:40;;;;;;;3.17;1.10;;;39.90;28.10;;;38.76;28.62;96146.56;6066543;23;20006;-70
2023/09/02 13:51:06;;;;;;;1.83;1.00;;;40.50;27.30;;;39.00;28.75;96159.06;6067049;23;20108;-70
2023/09/02 13:53:33;;;;;;;7.57;6.80;;;41.30;26.60;;;39.14;28.00;96145.53;6090196;23;20049;-72
2023/09/02 13:55:59;;;;;;;3.85;2.45;;;41.80;24.70;;;39.27;28.34;96154.34;6114394;23;20001;-70
2023/09/02 13:58:25;;;;;;;2.08;1.10;;;42.10;25.60;;;39.48;28.14;96153.84;6066241;23;20451;-68
2023/09/02 14:00:51;;;;;;;4.65;2.65;;;42.30;25.00;;;39.71;27.72;96150.97;6113926;23;20005;-66
2023/09/02 14:03:25;;;;;;;3.80;1.52;;;42.50;24.10;;;39.96;27.68;96156.78;6089800;23;20525;-66
2023/09/02 14:05:51;;;;;;;2.40;1.60;;;42.80;24.80;;;40.15;27.49;96155.78;6112809;23;20022;-71
2023/09/02 14:08:19;;;;;;;4.60;3.25;;;42.70;23.70;;;40.30;27.57;96160.28;6090397;23;20009;-71
2023/09/02 14:10:48;;;;;;;2.28;1.70;;;43.00;24.50;;;40.48;27.50;96161.22;6113421;23;20016;-70
2023/09/02 14:13:15;;;;;;;2.20;1.10;;;43.10;24.60;;;40.66;27.95;96172.41;6089996;23;20009;-70